createdAt,value
2022-09-21T00:01:12.191Z,10.80
2022-09-21T00:03:42.219Z,10.80
2022-09-21T00:06:13.791Z,10.80
2022-09-21T00:08:42.421Z,10.70
2022-09-21T00:11:13.994Z,10.70
2022-09-21T00:13:42.284Z,10.80
2022-09-21T00:16:11.259Z,10.60
2022-09-21T00:18:39.722Z,10.60
2022-09-21T00:21:09.538Z,10.50
2022-09-21T00:23:39.960Z,10.50
2022-09-21T00:26:19.037Z,10.40
2022-09-21T00:28:48.486Z,10.30
2022-09-21T00:31:18.766Z,10.30
2022-09-21T00:33:47.419Z,10.30
2022-09-21T00:36:17.227Z,10.20
2022-09-21T00:38:50.289Z,10.20
2022-09-21T00:41:18.898Z,10.10
2022-09-21T00:43:48.663Z,9.90
2022-09-21T00:46:26.267Z,9.90
2022-09-21T00:48:55.174Z,9.80
2022-09-21T00:51:23.526Z,9.80
2022-09-21T00:53:57.128Z,9.80
2022-09-21T00:56:25.729Z,9.70
2022-09-21T00:58:56.153Z,9.60
2022-09-21T01:01:25.027Z,9.50
2022-09-21T01:03:57.385Z,9.50
2022-09-21T01:06:26.900Z,9.50
2022-09-21T01:08:59.093Z,9.40
2022-09-21T01:11:35.507Z,9.40
2022-09-21T01:14:19.248Z,9.40
2022-09-21T01:16:56.098Z,9.40
2022-09-21T01:19:45.527Z,9.40
2022-09-21T01:22:25.925Z,9.30
2022-09-21T01:25:10.505Z,9.30
2022-09-21T01:27:55.126Z,9.30
2022-09-21T01:30:26.130Z,9.20
2022-09-21T01:32:59.297Z,9.20
2022-09-21T01:35:32.325Z,9.20
2022-09-21T01:38:04.329Z,9.10
2022-09-21T01:40:36.201Z,9.10
2022-09-21T01:43:06.927Z,9.00
2022-09-21T01:45:40.803Z,9.00
2022-09-21T01:48:11.280Z,8.90
2022-09-21T01:50:44.590Z,8.80
2022-09-21T01:53:17.185Z,8.80
2022-09-21T01:55:51.194Z,8.80
2022-09-21T01:58:25.747Z,8.80
2022-09-21T02:00:58.321Z,8.80
2022-09-21T02:03:30.914Z,8.80
2022-09-21T02:06:00.962Z,8.70
2022-09-21T02:08:32.390Z,8.70
2022-09-21T02:11:02.888Z,8.70
2022-09-21T02:13:34.652Z,8.60
2022-09-21T02:16:20.517Z,8.50
2022-09-21T02:18:57.786Z,8.50
2022-09-21T02:21:33.725Z,8.50
2022-09-21T02:24:09.449Z,8.50
2022-09-21T02:26:46.510Z,8.40
2022-09-21T02:29:21.763Z,8.40
2022-09-21T02:31:58.739Z,8.30
2022-09-21T02:34:33.394Z,8.30
2022-09-21T02:37:07.059Z,8.30
2022-09-21T02:39:40.102Z,8.20
2022-09-21T02:42:11.567Z,8.20
2022-09-21T02:44:42.143Z,8.20
2022-09-21T02:47:15.988Z,8.30
2022-09-21T02:49:48.313Z,8.20
2022-09-21T02:52:18.485Z,8.20
2022-09-21T02:54:52.123Z,8.20
2022-09-21T02:57:22.006Z,8.20
2022-09-21T02:59:51.087Z,8.20
2022-09-21T03:02:20.611Z,8.20
2022-09-21T03:04:50.061Z,8.20
2022-09-21T03:07:18.928Z,8.30
2022-09-21T03:09:47.041Z,8.30
2022-09-21T03:12:15.150Z,8.20
2022-09-21T03:14:43.685Z,8.00
2022-09-21T03:17:11.773Z,8.10
2022-09-21T03:19:41.235Z,8.00
2022-09-21T03:22:09.431Z,8.00
2022-09-21T03:24:46.502Z,8.00
2022-09-21T03:27:15.382Z,8.00
2022-09-21T03:29:43.541Z,8.00
2022-09-21T03:32:11.671Z,7.90
2022-09-21T03:34:41.774Z,7.90
2022-09-21T03:37:11.208Z,7.90
2022-09-21T03:39:39.424Z,7.90
2022-09-21T03:42:09.186Z,7.90
2022-09-21T03:44:38.337Z,7.80
2022-09-21T03:47:07.669Z,7.80
2022-09-21T03:49:36.042Z,7.80
2022-09-21T03:52:06.055Z,7.80
2022-09-21T03:54:34.451Z,7.70
2022-09-21T03:57:02.670Z,7.70
2022-09-21T03:59:30.809Z,7.70
2022-09-21T04:01:58.936Z,7.70
2022-09-21T04:04:27.035Z,7.70
2022-09-21T04:06:55.177Z,7.60
2022-09-21T04:09:24.685Z,7.70
2022-09-21T04:11:53.410Z,7.70
2022-09-21T04:14:22.390Z,7.60
2022-09-21T04:16:52.117Z,7.60
2022-09-21T04:19:22.082Z,7.60
2022-09-21T04:21:52.917Z,7.50
2022-09-21T04:24:21.042Z,7.40
2022-09-21T04:26:50.616Z,7.40
2022-09-21T04:29:18.745Z,7.30
2022-09-21T04:31:46.881Z,7.30
2022-09-21T04:34:15.421Z,7.30
2022-09-21T04:36:43.683Z,7.30
2022-09-21T04:39:11.759Z,7.30
2022-09-21T04:41:39.876Z,7.40
2022-09-21T04:44:09.546Z,7.40
2022-09-21T04:46:38.480Z,7.40
2022-09-21T04:49:06.992Z,7.30
2022-09-21T04:51:35.171Z,7.30
2022-09-21T04:54:03.374Z,7.30
2022-09-21T04:56:31.610Z,7.30
2022-09-21T04:58:59.841Z,7.30
2022-09-21T05:01:29.662Z,7.30
2022-09-21T05:04:01.705Z,7.30
2022-09-21T05:06:29.931Z,7.30
2022-09-21T05:09:15.572Z,7.30
2022-09-21T05:11:43.722Z,7.30
2022-09-21T05:14:12.357Z,7.40
2022-09-21T05:16:41.866Z,7.40
2022-09-21T05:19:09.960Z,7.40
2022-09-21T05:21:38.199Z,7.40
2022-09-21T05:24:06.656Z,7.40
2022-09-21T05:26:34.744Z,7.40
2022-09-21T05:29:03.552Z,7.40
2022-09-21T05:31:43.533Z,7.40
2022-09-21T05:34:30.995Z,7.50
2022-09-21T05:37:07.335Z,7.40
2022-09-21T05:39:35.844Z,7.40
2022-09-21T05:42:04.322Z,7.50
2022-09-21T05:44:34.722Z,7.40
2022-09-21T05:47:13.555Z,7.40
2022-09-21T05:49:49.470Z,7.50
2022-09-21T05:52:24.973Z,7.40
2022-09-21T05:55:03.714Z,7.50
2022-09-21T05:57:42.276Z,7.50
2022-09-21T06:00:16.915Z,7.50
2022-09-21T06:03:17.891Z,7.70
2022-09-21T06:05:46.767Z,7.70
2022-09-21T06:08:14.893Z,7.80
2022-09-21T06:10:43.309Z,7.90
2022-09-21T06:13:11.485Z,7.90
2022-09-21T06:15:39.619Z,8.10
2022-09-21T06:18:14.267Z,8.10
2022-09-21T06:20:45.171Z,8.10
2022-09-21T06:23:14.416Z,8.20
2022-09-21T06:25:42.763Z,8.30
2022-09-21T06:28:12.237Z,8.30
2022-09-21T06:30:42.425Z,8.40
2022-09-21T06:33:12.243Z,8.60
2022-09-21T06:35:40.448Z,8.70
2022-09-21T06:38:09.614Z,8.80
2022-09-21T06:40:38.489Z,8.90
2022-09-21T06:43:07.344Z,9.10
2022-09-21T06:45:35.522Z,9.20
2022-09-21T06:48:03.908Z,9.30
2022-09-21T06:50:34.108Z,9.40
2022-09-21T06:53:02.607Z,9.60
2022-09-21T06:55:30.970Z,9.70
2022-09-21T06:58:02.951Z,9.80
2022-09-21T07:00:31.532Z,9.90
2022-09-21T07:02:59.666Z,10.00
2022-09-21T07:05:27.996Z,10.20
2022-09-21T07:08:00.466Z,10.30
2022-09-21T07:10:28.737Z,10.40
2022-09-21T07:12:57.094Z,10.60
2022-09-21T07:15:25.310Z,10.70
2022-09-21T07:18:05.097Z,10.80
2022-09-21T07:20:33.961Z,11.00
2022-09-21T07:23:11.475Z,11.20
2022-09-21T07:25:39.859Z,11.30
2022-09-21T07:28:08.519Z,11.50
2022-09-21T07:30:37.742Z,11.60
2022-09-21T07:33:06.941Z,11.70
2022-09-21T07:35:36.599Z,11.90
2022-09-21T07:38:08.946Z,12.10
2022-09-21T07:40:53.947Z,12.30
2022-09-21T07:46:20.668Z,12.50
2022-09-21T07:48:48.966Z,12.70
2022-09-21T07:51:17.724Z,12.80
2022-09-21T07:53:47.230Z,12.70
2022-09-21T07:56:17.165Z,12.80
2022-09-21T07:59:03.017Z,12.80
2022-09-21T08:01:32.072Z,13.00
2022-09-21T08:04:00.793Z,13.20
2022-09-21T08:06:32.924Z,13.30
2022-09-21T08:09:02.937Z,13.40
2022-09-21T08:11:33.242Z,13.40
2022-09-21T08:14:03.317Z,13.50
2022-09-21T08:16:32.488Z,13.60
2022-09-21T08:19:02.283Z,13.70
2022-09-21T08:21:30.496Z,13.80
2022-09-21T08:23:58.858Z,13.90
2022-09-21T08:26:28.379Z,14.00
2022-09-21T08:28:59.027Z,14.10
2022-09-21T08:31:28.311Z,14.30
2022-09-21T08:33:57.651Z,14.30
2022-09-21T08:36:25.887Z,14.30
2022-09-21T08:38:55.115Z,14.30
2022-09-21T08:41:26.901Z,14.40
2022-09-21T08:44:01.423Z,14.40
2022-09-21T08:46:31.837Z,14.60
2022-09-21T08:49:02.599Z,14.70
2022-09-21T08:51:35.478Z,14.70
2022-09-21T08:54:13.584Z,14.80
2022-09-21T08:57:03.833Z,15.00
2022-09-21T08:59:31.498Z,15.10
2022-09-21T09:02:09.630Z,15.10
2022-09-21T09:04:54.754Z,15.30
2022-09-21T09:07:43.503Z,15.40
2022-09-21T09:10:33.621Z,15.40
2022-09-21T09:13:10.676Z,15.50
2022-09-21T09:15:53.585Z,15.50
2022-09-21T09:18:30.348Z,15.50
2022-09-21T09:21:03.041Z,15.50
2022-09-21T09:23:34.491Z,15.80
2022-09-21T09:26:08.981Z,15.70
2022-09-21T09:28:43.184Z,15.80
2022-09-21T09:31:19.559Z,15.70
2022-09-21T09:33:54.071Z,15.80
2022-09-21T09:36:46.524Z,15.80
2022-09-21T09:39:14.122Z,15.90
2022-09-21T09:42:01.865Z,16.00
2022-09-21T09:44:45.052Z,16.20
2022-09-21T09:47:27.426Z,16.30
2022-09-21T09:50:05.780Z,16.30
2022-09-21T09:52:34.862Z,16.30
2022-09-21T09:55:12.642Z,16.30
2022-09-21T09:57:40.986Z,16.50
2022-09-21T10:00:15.061Z,16.60
2022-09-21T10:02:50.527Z,16.50
2022-09-21T10:05:24.407Z,16.70
2022-09-21T10:07:53.594Z,16.80
2022-09-21T10:10:33.937Z,16.80
2022-09-21T10:13:13.102Z,16.70
2022-09-21T10:15:50.383Z,16.80
2022-09-21T10:18:23.727Z,16.80
2022-09-21T10:20:59.900Z,17.00
2022-09-21T10:23:29.161Z,16.90
2022-09-21T10:26:03.630Z,17.00
2022-09-21T10:28:32.281Z,17.10
2022-09-21T10:31:11.912Z,16.90
2022-09-21T10:33:56.482Z,17.10
2022-09-21T10:36:30.712Z,17.10
2022-09-21T10:39:19.521Z,17.00
2022-09-21T10:42:02.469Z,17.10
2022-09-21T10:44:38.726Z,17.20
2022-09-21T10:47:25.387Z,17.30
2022-09-21T10:49:58.903Z,17.30
2022-09-21T10:52:35.449Z,17.30
2022-09-21T10:55:03.780Z,17.20
2022-09-21T10:57:33.512Z,17.30
2022-09-21T11:00:14.339Z,17.50
2022-09-21T11:02:43.487Z,17.60
2022-09-21T11:05:18.033Z,17.60
2022-09-21T11:07:50.886Z,17.50
2022-09-21T11:10:24.661Z,17.60
2022-09-21T11:13:12.713Z,17.50
2022-09-21T11:15:48.617Z,17.60
2022-09-21T11:18:23.285Z,17.40
2022-09-21T11:20:56.338Z,17.10
2022-09-21T11:23:44.400Z,17.10
2022-09-21T11:26:19.484Z,17.20
2022-09-21T11:28:52.360Z,17.50
2022-09-21T11:31:37.831Z,17.70
2022-09-21T11:34:41.473Z,17.80
2022-09-21T11:37:19.855Z,17.90
2022-09-21T11:40:14.030Z,17.90
2022-09-21T11:42:54.732Z,17.80
2022-09-21T11:45:34.560Z,17.80
2022-09-21T11:48:17.849Z,17.80
2022-09-21T11:50:57.568Z,17.80
2022-09-21T11:53:40.421Z,17.80
2022-09-21T11:56:29.674Z,17.80
2022-09-21T11:59:07.167Z,18.10
2022-09-21T12:01:49.614Z,18.30
2022-09-21T12:04:36.432Z,18.30
2022-09-21T12:07:27.729Z,18.20
2022-09-21T12:10:33.289Z,18.20
2022-09-21T12:13:09.943Z,18.30
2022-09-21T12:15:44.204Z,18.50
2022-09-21T12:18:18.809Z,18.70
2022-09-21T12:20:50.241Z,18.80
2022-09-21T12:23:23.104Z,18.70
2022-09-21T12:25:57.673Z,18.80
2022-09-21T12:28:30.367Z,18.50
2022-09-21T12:31:05.586Z,18.20
2022-09-21T12:33:40.598Z,18.60
2022-09-21T12:36:14.792Z,18.80
2022-09-21T12:38:49.909Z,18.90
2022-09-21T12:41:28.817Z,19.20
2022-09-21T12:44:07.342Z,19.30
2022-09-21T12:46:39.046Z,19.30
2022-09-21T12:49:15.373Z,19.40
2022-09-21T12:51:47.771Z,19.30
2022-09-21T12:54:25.864Z,19.50
2022-09-21T12:57:17.617Z,19.80
2022-09-21T13:00:01.062Z,20.00
2022-09-21T13:02:35.576Z,19.90
2022-09-21T13:05:12.996Z,19.90
2022-09-21T13:08:03.267Z,20.10
2022-09-21T13:10:49.202Z,20.20
2022-09-21T13:13:32.858Z,19.80
2022-09-21T13:16:02.013Z,20.00
2022-09-21T13:18:36.409Z,19.80
2022-09-21T13:21:17.684Z,19.50
2022-09-21T13:23:52.813Z,19.70
2022-09-21T13:26:32.924Z,19.60
2022-09-21T13:29:25.082Z,19.30
2022-09-21T13:31:59.220Z,19.60
2022-09-21T13:34:30.495Z,19.80
2022-09-21T13:37:32.959Z,19.90
2022-09-21T13:40:41.242Z,20.10
2022-09-21T13:43:46.543Z,20.20
2022-09-21T13:47:01.667Z,20.60
2022-09-21T13:49:44.569Z,20.70
2022-09-21T13:52:30.695Z,21.10
2022-09-21T13:55:01.524Z,20.80
2022-09-21T13:57:39.015Z,20.80
2022-09-21T14:00:32.779Z,20.50
2022-09-21T14:03:05.169Z,21.00
2022-09-21T14:05:40.553Z,20.80
2022-09-21T14:08:22.003Z,20.90
2022-09-21T14:10:54.296Z,20.90
2022-09-21T14:13:34.917Z,20.90
2022-09-21T14:16:49.748Z,21.20
2022-09-21T14:20:01.738Z,21.20
2022-09-21T14:22:40.207Z,21.50
2022-09-21T14:25:43.102Z,21.50
2022-09-21T14:28:14.927Z,21.60
2022-09-21T14:30:53.567Z,21.60
2022-09-21T14:33:28.148Z,21.40
2022-09-21T14:35:57.478Z,21.10
2022-09-21T14:38:30.629Z,21.20
2022-09-21T14:41:02.804Z,21.80
2022-09-21T14:43:35.255Z,22.40
2022-09-21T14:46:19.184Z,22.30
2022-09-21T14:48:57.435Z,22.20
2022-09-21T14:51:38.358Z,21.40
2022-09-21T14:54:21.488Z,21.30
2022-09-21T14:57:01.163Z,21.60
2022-09-21T14:59:48.222Z,21.40
2022-09-21T15:02:21.011Z,21.30
2022-09-21T15:05:00.199Z,21.40
2022-09-21T15:07:58.088Z,21.50
2022-09-21T15:10:53.042Z,22.00
2022-09-21T15:13:42.578Z,21.70
2022-09-21T15:16:22.054Z,21.80
2022-09-21T15:18:52.224Z,22.10
2022-09-21T15:21:27.513Z,22.20
2022-09-21T15:23:56.128Z,21.90
2022-09-21T15:26:29.369Z,20.90
2022-09-21T15:29:13.547Z,20.20
2022-09-21T15:31:43.081Z,20.30
2022-09-21T15:34:11.945Z,20.50
2022-09-21T15:36:42.087Z,21.10
2022-09-21T15:39:23.509Z,21.30
2022-09-21T15:42:07.023Z,21.00
2022-09-21T15:44:36.881Z,21.60
2022-09-21T15:47:08.534Z,22.30
2022-09-21T15:49:38.046Z,21.30
2022-09-21T15:52:13.003Z,20.60
2022-09-21T15:54:45.047Z,19.80
2022-09-21T15:57:36.737Z,19.90
2022-09-21T16:00:18.713Z,19.80
2022-09-21T16:03:04.823Z,19.90
2022-09-21T16:05:42.302Z,19.90
2022-09-21T16:08:22.674Z,20.00
2022-09-21T16:10:51.361Z,21.10
2022-09-21T16:13:41.223Z,24.00
2022-09-21T16:16:11.293Z,24.40
2022-09-21T16:18:46.280Z,20.80
2022-09-21T16:21:22.712Z,19.50
2022-09-21T16:23:54.715Z,18.70
2022-09-21T16:26:26.937Z,18.30
2022-09-21T16:29:19.930Z,18.20
2022-09-21T16:31:50.390Z,17.90
2022-09-21T16:34:36.911Z,17.70
2022-09-21T16:37:25.355Z,17.70
2022-09-21T16:39:54.037Z,17.70
2022-09-21T16:42:23.645Z,17.70
2022-09-21T16:44:53.728Z,17.80
2022-09-21T16:47:25.327Z,17.60
2022-09-21T16:49:56.462Z,17.40
2022-09-21T16:52:25.147Z,17.30
2022-09-21T16:54:54.905Z,17.10
2022-09-21T16:57:23.347Z,17.10
2022-09-21T16:59:53.357Z,16.90
2022-09-21T17:02:23.702Z,16.80
2022-09-21T17:04:51.836Z,16.80
2022-09-21T17:07:20.030Z,16.80
2022-09-21T17:09:48.640Z,16.60
2022-09-21T17:12:18.680Z,16.50
2022-09-21T17:14:47.576Z,16.50
2022-09-21T17:17:20.577Z,16.40
2022-09-21T17:19:51.289Z,16.30
2022-09-21T17:22:19.863Z,16.20
2022-09-21T17:24:51.757Z,16.10
2022-09-21T17:27:22.668Z,16.00
2022-09-21T17:29:53.764Z,15.90
2022-09-21T17:32:25.008Z,15.80
2022-09-21T17:34:58.693Z,15.60
2022-09-21T17:37:27.317Z,15.30
2022-09-21T17:39:55.524Z,15.10
2022-09-21T17:42:25.896Z,14.90
2022-09-21T17:45:14.672Z,14.70
2022-09-21T17:47:44.543Z,14.50
2022-09-21T17:50:24.130Z,14.30
2022-09-21T17:53:10.901Z,14.00
2022-09-21T17:55:40.255Z,13.90
2022-09-21T17:58:33.706Z,13.80
2022-09-21T18:01:07.485Z,13.80
2022-09-21T18:03:42.583Z,13.50
2022-09-21T18:06:13.059Z,13.50
2022-09-21T18:08:44.712Z,13.50
2022-09-21T18:11:54.578Z,13.30
2022-09-21T18:14:40.785Z,13.30
2022-09-21T18:17:36.614Z,13.30
2022-09-21T18:20:18.259Z,13.10
2022-09-21T18:22:57.467Z,13.00
2022-09-21T18:25:30.471Z,12.90
2022-09-21T18:28:03.360Z,12.80
2022-09-21T18:30:32.679Z,12.70
2022-09-21T18:33:11.402Z,12.70
2022-09-21T18:35:54.427Z,12.50
2022-09-21T18:38:28.422Z,12.40
2022-09-21T18:41:06.145Z,12.40
2022-09-21T18:43:48.733Z,12.30
2022-09-21T18:46:23.133Z,12.20
2022-09-21T18:49:00.466Z,12.20
2022-09-21T18:51:38.610Z,12.10
2022-09-21T18:54:08.714Z,12.00
2022-09-21T18:56:38.792Z,11.90
2022-09-21T18:59:07.525Z,11.80
2022-09-21T19:01:36.523Z,11.80
2022-09-21T19:04:05.599Z,11.80
2022-09-21T19:06:42.730Z,11.80
2022-09-21T19:09:30.400Z,11.80
2022-09-21T19:12:07.388Z,11.60
2022-09-21T19:14:44.714Z,11.60
2022-09-21T19:17:26.746Z,11.60
2022-09-21T19:20:07.161Z,11.60
2022-09-21T19:22:46.727Z,11.60
2022-09-21T19:25:24.891Z,11.50
2022-09-21T19:27:59.338Z,11.40
2022-09-21T19:30:28.233Z,11.40
2022-09-21T19:32:58.252Z,11.40
2022-09-21T19:35:28.851Z,11.30
2022-09-21T19:38:01.445Z,11.30
2022-09-21T19:40:33.464Z,11.30
2022-09-21T19:43:14.080Z,11.30
2022-09-21T19:45:51.470Z,11.20
2022-09-21T19:48:22.754Z,11.10
2022-09-21T19:50:54.980Z,11.10
2022-09-21T19:53:42.702Z,11.00
2022-09-21T19:56:31.189Z,10.90
2022-09-21T19:59:17.378Z,10.90
2022-09-21T20:01:52.669Z,10.90
2022-09-21T20:04:27.465Z,10.80
2022-09-21T20:06:59.323Z,10.80
2022-09-21T20:09:34.563Z,10.70
2022-09-21T20:12:11.278Z,10.80
2022-09-21T20:14:45.327Z,10.80
2022-09-21T20:17:17.510Z,10.80
2022-09-21T20:19:53.051Z,10.80
2022-09-21T20:22:33.864Z,10.70
2022-09-21T20:25:10.755Z,10.60
2022-09-21T20:27:41.558Z,10.60
2022-09-21T20:30:11.940Z,10.60
2022-09-21T20:32:42.792Z,10.60
2022-09-21T20:35:17.054Z,10.50
2022-09-21T20:37:45.507Z,10.50
2022-09-21T20:40:16.227Z,10.50
2022-09-21T20:42:44.398Z,10.50
2022-09-21T20:45:14.017Z,10.40
2022-09-21T20:47:42.192Z,10.40
2022-09-21T20:50:12.845Z,10.40
2022-09-21T20:52:42.230Z,10.40
2022-09-21T20:55:12.451Z,10.30
2022-09-21T20:57:42.055Z,10.30
2022-09-21T21:00:13.202Z,10.40
2022-09-21T21:02:41.707Z,10.30
2022-09-21T21:05:11.347Z,10.30
2022-09-21T21:07:42.632Z,10.30
2022-09-21T21:10:14.264Z,10.20
2022-09-21T21:12:44.071Z,10.20
2022-09-21T21:15:13.559Z,10.10
2022-09-21T21:17:42.531Z,10.00
2022-09-21T21:20:11.460Z,10.00
2022-09-21T21:22:39.606Z,9.90
2022-09-21T21:25:08.754Z,9.90
2022-09-21T21:27:37.078Z,9.90
2022-09-21T21:30:08.183Z,9.90
2022-09-21T21:32:36.419Z,9.90
2022-09-21T21:35:05.629Z,9.80
2022-09-21T21:37:33.717Z,9.80
2022-09-21T21:40:02.374Z,9.70
2022-09-21T21:42:30.533Z,9.70
2022-09-21T21:44:58.699Z,9.70
2022-09-21T21:47:39.232Z,9.50
2022-09-21T21:50:08.352Z,9.50
2022-09-21T21:52:36.479Z,9.40
2022-09-21T21:55:05.060Z,9.40
2022-09-21T21:57:33.318Z,9.40
2022-09-21T22:00:01.550Z,9.40
2022-09-21T22:02:31.353Z,9.40
2022-09-21T22:05:00.725Z,9.30
2022-09-21T22:07:29.029Z,9.30
2022-09-21T22:09:57.149Z,9.30
2022-09-21T22:12:26.246Z,9.30
2022-09-21T22:14:54.357Z,9.20
2022-09-21T22:17:23.175Z,9.20
2022-09-21T22:19:54.124Z,9.20
2022-09-21T22:22:22.260Z,9.20
2022-09-21T22:24:50.381Z,9.20
2022-09-21T22:27:18.490Z,9.20
2022-09-21T22:29:46.688Z,9.10
2022-09-21T22:32:14.836Z,9.10
2022-09-21T22:34:42.917Z,9.10
2022-09-21T22:37:12.402Z,9.10
2022-09-21T22:39:40.550Z,9.10
2022-09-21T22:42:11.285Z,9.10
2022-09-21T22:44:39.406Z,9.00
2022-09-21T22:47:07.597Z,9.00
2022-09-21T22:49:35.721Z,9.10
2022-09-21T22:52:03.825Z,9.10
2022-09-21T22:54:33.328Z,9.00
2022-09-21T22:57:01.421Z,8.90
2022-09-21T22:59:29.537Z,8.90
2022-09-21T23:01:57.770Z,8.90
2022-09-21T23:04:25.962Z,8.90
2022-09-21T23:06:54.066Z,8.90
2022-09-21T23:09:22.757Z,8.90
2022-09-21T23:11:53.864Z,8.90
2022-09-21T23:14:23.356Z,8.90
2022-09-21T23:16:52.969Z,8.90
2022-09-21T23:19:21.153Z,8.90
2022-09-21T23:21:50.737Z,8.90
2022-09-21T23:24:19.752Z,8.80
2022-09-21T23:26:50.492Z,8.80
2022-09-21T23:29:20.165Z,8.80
2022-09-21T23:31:48.357Z,8.80
2022-09-21T23:34:16.717Z,8.80
2022-09-21T23:36:46.060Z,8.80
2022-09-21T23:39:15.836Z,8.70
2022-09-21T23:41:44.758Z,8.70
2022-09-21T23:44:13.021Z,8.80
2022-09-21T23:46:42.964Z,8.60
2022-09-21T23:49:11.370Z,8.70
2022-09-21T23:51:40.303Z,8.70
2022-09-21T23:54:08.616Z,8.70
2022-09-21T23:56:36.977Z,8.60
2022-09-21T23:59:05.589Z,8.60
